Flight Track Log - Related Links

Times and Time Zones

All times are in EDT time to prevent confusion due to time zone crossing. See the N16112 flight status page for this flight to view local times or setup timezone preferences in your user account.

Time Position Orientation Groundspeed Altitude Reporting Facility
EDT Latitude Longitude Course Direction KTS MPH feet Rate Location/Type
Tue 11:57:28 AM 29.9617 -95.3436 95° East 159 183 700  Level Houston Center
Tue 11:58:23 AM 29.9469 -95.2972 110° East 192 221 2,400 1,556 Climbing Houston Center
Tue 11:59:16 AM 29.9469 -95.2503 90° East 203 234 3,500 1,878 Climbing Houston Center
Tue 12:00:00 PM 29.9270 -94.9593 97° East  Level FlightAware Approximate
Tue 12:00:18 PM 29.9633 -95.1500 79° East 255 293 6,000  Level Houston Center
Tue 12:01:00 PM 29.9139 -94.8336 95° East  Level FlightAware Approximate
Tue 12:01:27 PM 29.9597 -95.0494 92° East 277 319 8,400  Level Houston Center
Tue 12:02:00 PM 29.9034 -94.7077 95° East  Level FlightAware Approximate
Tue 12:02:22 PM 29.9511 -94.9706 97° East 284 327 10,100  Level Houston Center
Tue 12:03:24 PM 29.9381 -94.8761 99° East 292 336 11,500 1,344 Climbing Houston Center
Tue 12:04:27 PM 29.9242 -94.7708 99° East 318 366 12,900 1,200 Climbing Houston Center
Tue 12:05:29 PM 29.9092 -94.6586 99° East 345 397 14,000 1,113 Climbing Houston Center
Tue 12:06:31 PM 29.8931 -94.5403 99° East 364 419 15,200 1,210 Climbing Houston Center
Tue 12:07:33 PM 29.8717 -94.3936 100° East 382 440 16,500 1,161 Climbing Houston Center
Tue 12:08:35 PM 29.8586 -94.2650 97° East 397 457 17,600 1,161 Climbing Houston Center
Tue 12:09:37 PM 29.8567 -94.1347 91° East 401 461 18,900 1,306 Climbing Houston Center
Tue 12:10:39 PM 29.8561 -94.0069 90° East 402 463 20,300 1,306 Climbing Houston Center
Tue 12:11:41 PM 29.8706 -93.8778 83° East 410 472 21,600 1,355 Climbing Houston Center
Tue 12:12:43 PM 29.8850 -93.7517 82° East 405 466 23,100 1,548 Climbing Houston Center
Tue 12:13:45 PM 29.9003 -93.5992 83° East 402 463 24,800 1,296 Climbing Houston Center
Tue 12:14:48 PM 29.9131 -93.4697 83° East 408 470 25,800 1,104 Climbing Houston Center
Tue 12:15:50 PM 29.9264 -93.3383 83° East 415 478 27,100 1,210 Climbing Houston Center
Tue 12:16:52 PM 29.9392 -93.2089 83° East 413 475 28,300 1,161 Climbing Houston Center
Tue 12:17:54 PM 29.9556 -93.0525 83° East 413 475 29,500 1,113 Climbing Houston Center
Tue 12:18:56 PM 29.9683 -92.9222 84° East 411 473 30,600 1,065 Climbing Houston Center
Tue 12:19:58 PM 29.9803 -92.7928 84° East 410 472 31,700 1,016 Climbing Houston Center
Tue 12:21:00 PM 29.9906 -92.6619 85° East 412 474 32,700 871 Climbing Houston Center
Tue 12:22:02 PM 30.0000 -92.5319 85° East 409 471 33,500 629 Climbing Houston Center
Tue 12:23:04 PM 30.0108 -92.3992 85° East 416 479 34,000 576 Climbing Houston Center
Tue 12:24:07 PM 30.0242 -92.2383 84° East 421 484 34,700 480 Climbing Houston Center
Tue 12:25:09 PM 30.0331 -92.1008 86° East 428 493 35,000 145 Climbing Houston Center
Tue 12:26:11 PM 30.0444 -91.9606 85° East 439 505 35,000  Level Houston Center
Tue 12:27:13 PM 30.0564 -91.8117 85° East 460 529 35,000  Level Houston Center
Tue 12:28:15 PM 30.0669 -91.6589 85° East 482 555 35,000  Level Houston Center
Tue 12:29:17 PM 30.0817 -91.4689 85° East 497 572 35,000 194 Level Houston Center
Tue 12:30:19 PM 30.0922 -91.3058 86° East 508 585 35,400 532 Climbing Houston Center
Tue 12:31:21 PM 30.1036 -91.1447 85° East 505 581 36,100 677 Climbing Houston Center
Tue 12:32:23 PM 30.1150 -90.9861 85° East 498 573 36,800 435 Climbing Houston Center
Tue 12:33:25 PM 30.1453 -90.8361 77° East 481 554 37,000 97 Climbing Houston Center
Tue 12:34:27 PM 30.1833 -90.6833 74° East 493 567 37,000  Level Houston Center
Tue 12:35:29 PM 30.2283 -90.4994 74° East 495 570 37,000  Level Houston Center
Tue 12:36:31 PM 30.2653 -90.3444 75° East 501 577 37,000  Level Houston Center
Tue 12:37:34 PM 30.3025 -90.1881 75° East 504 580 37,000  Level Houston Center
Tue 12:38:36 PM 30.3400 -90.0317 74° East 505 581 37,000  Level Houston Center
Tue 12:39:38 PM 30.3828 -89.8503 75° East 506 582 37,000  Level Houston Center
Tue 12:40:40 PM 30.4367 -89.7039 67° East 496 571 37,000  Level Houston Center
Tue 12:41:42 PM 30.4936 -89.5700 64° Northeast 499 574 37,000  Level Houston Center
Tue 12:42:44 PM 30.5533 -89.4267 64° Northeast 495 570 37,000  Level Houston Center
Tue 12:43:46 PM 30.6247 -89.2544 64° Northeast 493 567 37,000  Level Houston Center
Tue 12:44:48 PM 30.6836 -89.1114 64° Northeast 492 566 37,000  Level Houston Center
Tue 12:45:50 PM 30.7419 -88.9681 65° Northeast 490 564 37,000  Level Houston Center
Tue 12:46:52 PM 30.8047 -88.8158 64° Northeast 488 562 37,000  Level Houston Center
Tue 12:47:54 PM 30.8639 -88.6736 64° Northeast 489 563 37,000  Level Houston Center
Tue 12:48:56 PM 30.9175 -88.5425 64° Northeast 484 557 37,000  Level Houston Center
Tue 12:49:58 PM 30.9869 -88.3733 64° Northeast 482 555 37,000  Level Houston Center
Tue 12:51:00 PM 31.0439 -88.2297 65° Northeast 486 559 37,000  Level Houston Center
Tue 12:52:03 PM 31.1036 -88.0892 64° Northeast 487 560 37,000  Level Houston Center
Tue 12:53:05 PM 31.1600 -87.9478 65° Northeast 483 556 37,000  Level Houston Center
Tue 12:54:07 PM 31.2172 -87.8061 65° Northeast 482 555 37,000  Level Houston Center
Tue 12:55:09 PM 31.2833 -87.6394 65° Northeast 484 557 37,000  Level Houston Center
Tue 12:56:11 PM 31.3561 -87.5131 56° Northeast 474 545 37,000  Level Houston Center
Tue 12:56:41 PM 31.3944 -87.4617 49° Northeast 468 539 37,000  Level Atlanta Center
Tue 12:57:41 PM 31.4811 -87.3481 48° Northeast 463 533 37,000  Level Atlanta Center
Tue 12:58:41 PM 31.5675 -87.2342 48° Northeast 463 533 37,000  Level Atlanta Center
Tue 12:59:41 PM 31.6539 -87.1178 49° Northeast 463 533 37,000  Level Atlanta Center
Tue 01:00:41 PM 31.7386 -86.9886 52° Northeast 463 533 37,000  Level Atlanta Center
Tue 01:01:41 PM 31.8225 -86.8742 49° Northeast 463 533 37,000  Level Atlanta Center
Tue 01:02:41 PM 31.9108 -86.7569 48° Northeast 463 533 37,000  Level Atlanta Center
Tue 01:03:41 PM 31.9903 -86.6567 47° Northeast 471 542 37,000  Level Atlanta Center
Tue 01:04:41 PM 32.0761 -86.5389 49° Northeast 471 542 37,000  Level Atlanta Center
Tue 01:05:41 PM 32.1600 -86.4211 50° Northeast 471 542 37,000  Level Atlanta Center
Tue 01:06:41 PM 32.2417 -86.2883 54° Northeast 465 535 37,000  Level Atlanta Center
Tue 01:07:41 PM 32.3294 -86.1650 50° Northeast 470 541 37,000  Level Atlanta Center
Tue 01:08:41 PM 32.4067 -86.0439 53° Northeast 470 541 37,000  Level Atlanta Center
Tue 01:09:41 PM 32.4878 -85.9225 52° Northeast 470 541 37,000  Level Atlanta Center
Tue 01:10:41 PM 32.5667 -85.8086 51° Northeast 482 555 37,000  Level Atlanta Center
Tue 01:11:41 PM 32.6478 -85.6892 51° Northeast 482 555 37,000  Level Atlanta Center
Tue 01:12:41 PM 32.7286 -85.5672 52° Northeast 477 549 37,000  Level Atlanta Center
Tue 01:13:41 PM 32.8053 -85.4450 53° Northeast 470 541 37,000  Level Atlanta Center
Tue 01:14:41 PM 32.8900 -85.3228 50° Northeast 470 541 37,000  Level Atlanta Center
Tue 01:15:41 PM 32.9706 -85.2000 52° Northeast 465 535 37,000  Level Atlanta Center
Tue 01:16:41 PM 33.0489 -85.0847 51° Northeast 460 529 37,000  Level Atlanta Center
Tue 01:17:41 PM 33.1311 -84.9617 51° Northeast 460 529 37,000  Level Atlanta Center
Tue 01:18:41 PM 33.2178 -84.8233 53° Northeast 471 542 37,000  Level Atlanta Center
Tue 01:19:41 PM 33.2978 -84.7025 52° Northeast 471 542 37,000  Level Atlanta Center
Tue 01:20:41 PM 33.3797 -84.5761 52° Northeast 471 542 37,000  Level Atlanta Center
Tue 01:21:41 PM 33.4575 -84.4547 52° Northeast 461 531 37,000  Level Atlanta Center
Tue 01:22:41 PM 33.5372 -84.3303 52° Northeast 466 536 37,000  Level Atlanta Center
Tue 01:23:41 PM 33.6083 -84.2208 52° Northeast 466 536 37,000  Level Atlanta Center
Tue 01:24:41 PM 33.6983 -84.0814 52° Northeast 466 536 37,000  Level Atlanta Center
Tue 01:25:41 PM 33.7756 -83.9564 53° Northeast 466 536 37,000  Level Atlanta Center
Tue 01:26:41 PM 33.8547 -83.8361 52° Northeast 466 536 37,000  Level Atlanta Center
Tue 01:27:41 PM 33.9336 -83.7108 53° Northeast 466 536 37,000  Level Atlanta Center
Tue 01:28:41 PM 34.0106 -83.5878 53° Northeast 466 536 37,000  Level Atlanta Center
Tue 01:29:41 PM 34.0892 -83.4669 52° Northeast 460 529 37,000  Level Atlanta Center
Tue 01:30:41 PM 34.1681 -83.3408 53° Northeast 460 529 37,000  Level Atlanta Center
Tue 01:31:41 PM 34.2444 -83.2169 53° Northeast 460 529 37,000  Level Atlanta Center
Tue 01:32:41 PM 34.3208 -83.0931 53° Northeast 460 529 37,000  Level Atlanta Center
Tue 01:33:41 PM 34.3969 -82.9689 53° Northeast 460 529 37,000  Level Atlanta Center
Tue 01:34:41 PM 34.4647 -82.8572 54° Northeast 455 524 37,000  Level Atlanta Center
Tue 01:35:41 PM 34.5450 -82.7375 51° Northeast 461 531 37,000  Level Atlanta Center
Tue 01:36:41 PM 34.6208 -82.6178 52° Northeast 456 525 37,000  Level Atlanta Center
Tue 01:37:41 PM 34.6964 -82.4850 55° Northeast 441 507 37,000  Level Atlanta Center
Tue 01:38:41 PM 34.7700 -82.3622 54° Northeast 441 507 37,000  Level Atlanta Center
Tue 01:39:41 PM 34.8433 -82.2419 53° Northeast 436 502 37,000  Level Atlanta Center
Tue 01:40:41 PM 34.9025 -82.1444 53° Northeast 436 502 37,000  Level Atlanta Center
Tue 01:41:41 PM 34.9900 -82.0031 53° Northeast 436 502 37,000  Level Atlanta Center
Tue 01:42:41 PM 35.0608 -81.8769 56° Northeast 441 507 37,000  Level Atlanta Center
Tue 01:43:41 PM 35.1275 -81.7533 57° Northeast 441 507 37,000  Level Atlanta Center
Tue 01:44:41 PM 35.1939 -81.6269 57° Northeast 441 507 37,000  Level Atlanta Center
Tue 01:45:41 PM 35.2622 -81.4978 57° Northeast 441 507 37,000  Level Atlanta Center
Tue 01:46:41 PM 35.3283 -81.3708 57° Northeast 441 507 37,000 -350 Level Atlanta Center
Tue 01:47:41 PM 35.3922 -81.2439 58° Northeast 441 507 36,300 -850 Descending Atlanta Center
Tue 01:48:41 PM 35.4600 -81.1117 58° Northeast 451 519 35,300 -1,050 Descending Atlanta Center
Tue 01:49:41 PM 35.5258 -80.9869 57° Northeast 444 511 34,200 -950 Descending Atlanta Center
Tue 01:50:41 PM 35.5917 -80.8617 57° Northeast 439 505 33,400 -600 Descending Atlanta Center
Tue 01:51:41 PM 35.6592 -80.7339 57° Northeast 439 505 33,000 -200 Descending Atlanta Center
Tue 01:52:41 PM 35.7264 -80.6033 58° Northeast 444 511 33,000  Level Atlanta Center
Tue 01:55:09 PM 35.8822 -80.2936 58° Northeast 446 513 33,000  Level Washington Center
Tue 01:56:09 PM 35.9497 -80.1642 57° Northeast 441 507 33,000  Level Washington Center
Tue 01:57:09 PM 36.0169 -80.0397 56° Northeast 441 507 33,000  Level Washington Center
Tue 01:58:09 PM 36.0822 -79.9125 58° Northeast 436 502 33,000  Level Washington Center
Tue 01:59:09 PM 36.1533 -79.7903 54° Northeast 436 502 33,000  Level Washington Center
Tue 02:00:09 PM 36.2289 -79.6553 55° Northeast 431 496 33,000  Level Washington Center
Tue 02:01:09 PM 36.2978 -79.5325 55° Northeast 431 496 33,000  Level Washington Center
Tue 02:02:09 PM 36.3597 -79.4222 55° Northeast 431 496 33,000  Level Washington Center
Tue 02:03:09 PM 36.4328 -79.2889 56° Northeast 431 496 33,000 -750 Level Washington Center
Tue 02:04:09 PM 36.5014 -79.1656 55° Northeast 431 496 31,500 -1,950 Descending Washington Center
Tue 02:05:09 PM 36.5650 -79.0572 54° Northeast 439 505 29,100 -2,400 Descending Washington Center
Tue 02:06:09 PM 36.6419 -78.9208 55° Northeast 439 505 26,700 -2,050 Descending Washington Center
Tue 02:07:09 PM 36.7014 -78.8069 57° Northeast 439 505 25,000 -850 Descending Washington Center
Tue 02:08:09 PM 36.7736 -78.6750 56° Northeast 429 494 25,000  Level Washington Center
Tue 02:09:09 PM 36.8414 -78.5531 55° Northeast 429 494 25,000  Level Washington Center
Tue 02:10:09 PM 36.9003 -78.4464 55° Northeast 429 494 25,000  Level Washington Center
Tue 02:11:09 PM 36.9744 -78.3086 56° Northeast 424 488 25,000 -100 Level Washington Center
Tue 02:12:09 PM 37.0436 -78.2044 50° Northeast 429 494 24,800 -800 Descending Washington Center
Tue 02:13:09 PM 37.1392 -78.1269 33° Northeast 408 470 23,400 -1,400 Descending Washington Center
Tue 02:14:09 PM 37.2386 -78.0519 31° Northeast 408 470 22,000 -700 Descending Washington Center
Tue 02:15:09 PM 37.3383 -77.9767 31° Northeast 413 475 22,000 -700 Level Washington Center
Tue 02:16:09 PM 37.4292 -77.9064 32° Northeast 407 468 20,600 -1,300 Descending Washington Center
Tue 02:17:09 PM 37.5183 -77.8383 31° Northeast 391 450 19,400 -1,100 Descending Washington Center
Tue 02:18:09 PM 37.6153 -77.7783 26° Northeast 379 436 18,400 -850 Descending Washington Center
Tue 02:19:09 PM 37.7122 -77.7181 26° Northeast 379 436 17,700 -850 Descending Washington Center
Tue 02:20:09 PM 37.8114 -77.6606 25° Northeast 384 442 16,700 -900 Descending Washington Center
Tue 02:21:09 PM 37.9125 -77.6028 24° Northeast 389 448 15,900 -1,400 Descending Washington Center
Tue 02:22:09 PM 38.0072 -77.5472 25° Northeast 384 442 13,900 -2,100 Descending Washington Center
Tue 02:23:09 PM 38.0997 -77.4969 23° Northeast 379 436 11,700 -1,950 Descending Washington Center
Tue 02:24:09 PM 38.1817 -77.4514 24° Northeast 347 399 10,000 -1,250 Descending Washington Center
Tue 02:25:09 PM 38.2589 -77.4506 360° North 288 331 9,200 -800 Descending Washington Center
Tue 02:26:09 PM 38.3361 -77.4553 357° North 283 326 8,400 -750 Descending Washington Center
Tue 02:27:09 PM 38.4047 -77.4569 359° North 283 326 7,700 -750 Descending Washington Center
Tue 02:28:09 PM 38.4964 -77.4592 359° North 272 313 6,900 -750 Descending Washington Center
Tue 02:29:09 PM 38.5694 -77.4636 357° North 266 306 6,200 -700 Descending Washington Center
Tue 02:30:09 PM 38.6403 -77.4628 North 261 300 5,500 -659 Descending Washington Center
Tue 02:30:31 PM 38.6667 -77.4667 353° North 269 310 5,300 -857 Descending Potomac TRACON
Tue 02:31:26 PM 38.7333 -77.4667 360° North 260 299 4,400 -982 Descending Potomac TRACON

Login

Don't have an account? Register now (free) for customized features, flight alerts, and more!